Seymour Johnson Air Force Base
KGSB : now visible

Airfield :











YOU CAN JOIN US ON...

 
LOGIN :

Register | Disclaimer

   EN    FR    IT 

 









Legend :    VFR   Marginal VFR   IFR   Intensive IFR   Very Intensive IFR
Visi :
Ceiling :
>= 8 km
>= 3000ft
5 to 8 km
1000 to 3000 ft
1500m to 5 km
500 to 1000 ft
800 to 1500m
200 to 500 ft
< 800m
< 200 ft
Symbols :   Thunderstorms  Fog  Heavy snow  Heavy precipitations  Wind > 20 kt






- Airport Elevation : 109 ft


KGSB - Seymour Johnson Air Force Base

CURRENT METAR :
  • 161156Z AUTO 00000KT 7SM CLR 03/02 A3021 RMK AO2 VIS 2 3/4 RWY08 SLP234 T00320023 10057 20028 53004 $

EXPIRED METARs :
  • 161056Z AUTO 00000KT 10SM CLR 03/02 A3020 RMK AO2 SLP230 T00290019 $
  • 160956Z AUTO 00000KT 10SM CLR 04/03 A3019 RMK AO2 SLP227 T00410029 $

TAF TAF KGSB
Valid from the 16 at 05:00 until the 17 at 11:00 UTC


160500Z 1605/1711 20003KT 9999 FEW250 QNH3008INS WND 20006KT AFT 1613
BECMG 1621/1622 18006KT 9999 BKN040 WS020/24030KT QNH2989INS
BECMG 1708/1709 20010KT 9999 BKN025 WS018/21035KT QNH2987INS TX19/1620Z TN03/1612Z



MET'MAP, your aeronautical weather chart ! - Copyright ORBIFLY December 2007 - Disclaimer

ORBIFLY MET'MAP TEAM :

Programming & Development : Alexandra Zaïnal
Concept & original design : Baudouin d'Aumeries
Assistance for programming : Marc-Olivier Méhu
Technical & hardware support : Manuel Goepfert

Contact : metmap@orbifly.com




SOURCES & CREDITS :

   NOAA       Earth
Advisory